sensor_id;sensor_type;location;lat;lon;timestamp;temperature;humidity
21502;DHT22;27639;48.674;9.242;2023-08-24T00:01:42;25.70;52.50
21502;DHT22;27639;48.674;9.242;2023-08-24T00:04:08;25.70;52.50
21502;DHT22;27639;48.674;9.242;2023-08-24T00:06:34;25.70;52.60
21502;DHT22;27639;48.674;9.242;2023-08-24T00:09:00;25.70;52.70
21502;DHT22;27639;48.674;9.242;2023-08-24T00:11:25;25.70;52.80
21502;DHT22;27639;48.674;9.242;2023-08-24T00:13:51;25.70;52.70
21502;DHT22;27639;48.674;9.242;2023-08-24T00:16:18;25.60;52.80
21502;DHT22;27639;48.674;9.242;2023-08-24T00:18:44;25.60;53.00
21502;DHT22;27639;48.674;9.242;2023-08-24T00:21:12;25.50;53.00
21502;DHT22;27639;48.674;9.242;2023-08-24T00:23:38;25.50;53.10
21502;DHT22;27639;48.674;9.242;2023-08-24T00:26:04;25.50;53.30
21502;DHT22;27639;48.674;9.242;2023-08-24T00:28:29;25.40;53.40
21502;DHT22;27639;48.674;9.242;2023-08-24T00:30:55;25.40;53.60
21502;DHT22;27639;48.674;9.242;2023-08-24T00:33:21;25.40;53.60
21502;DHT22;27639;48.674;9.242;2023-08-24T00:35:46;25.30;53.60
21502;DHT22;27639;48.674;9.242;2023-08-24T00:38:12;25.40;53.60
21502;DHT22;27639;48.674;9.242;2023-08-24T00:40:37;25.40;53.40
21502;DHT22;27639;48.674;9.242;2023-08-24T00:43:04;25.40;53.40
21502;DHT22;27639;48.674;9.242;2023-08-24T00:45:30;25.40;53.40
21502;DHT22;27639;48.674;9.242;2023-08-24T00:47:56;25.40;53.40
21502;DHT22;27639;48.674;9.242;2023-08-24T00:50:22;25.30;53.60
21502;DHT22;27639;48.674;9.242;2023-08-24T00:52:49;25.20;53.80
21502;DHT22;27639;48.674;9.242;2023-08-24T00:55:15;25.10;53.90
21502;DHT22;27639;48.674;9.242;2023-08-24T00:57:41;25.10;54.30
21502;DHT22;27639;48.674;9.242;2023-08-24T01:00:07;25.00;54.40
21502;DHT22;27639;48.674;9.242;2023-08-24T01:02:36;24.90;54.60
21502;DHT22;27639;48.674;9.242;2023-08-24T01:05:02;25.00;54.60
21502;DHT22;27639;48.674;9.242;2023-08-24T01:07:30;25.00;54.60
21502;DHT22;27639;48.674;9.242;2023-08-24T01:09:56;25.00;54.60
21502;DHT22;27639;48.674;9.242;2023-08-24T01:15:24;24.90;54.50
21502;DHT22;27639;48.674;9.242;2023-08-24T01:17:52;24.90;55.00
21502;DHT22;27639;48.674;9.242;2023-08-24T01:20:19;24.90;54.70
21502;DHT22;27639;48.674;9.242;2023-08-24T01:23:04;24.90;54.70
21502;DHT22;27639;48.674;9.242;2023-08-24T01:25:42;24.90;54.60
21502;DHT22;27639;48.674;9.242;2023-08-24T01:28:13;24.90;54.50
21502;DHT22;27639;48.674;9.242;2023-08-24T01:30:39;24.90;54.50
21502;DHT22;27639;48.674;9.242;2023-08-24T01:33:05;24.90;54.60
21502;DHT22;27639;48.674;9.242;2023-08-24T01:35:31;24.90;54.60
21502;DHT22;27639;48.674;9.242;2023-08-24T01:37:58;24.90;54.70
21502;DHT22;27639;48.674;9.242;2023-08-24T01:40:39;24.90;54.70
21502;DHT22;27639;48.674;9.242;2023-08-24T01:43:10;24.80;54.60
21502;DHT22;27639;48.674;9.242;2023-08-24T01:45:37;24.90;55.00
21502;DHT22;27639;48.674;9.242;2023-08-24T01:48:04;24.80;54.90
21502;DHT22;27639;48.674;9.242;2023-08-24T01:50:31;24.80;54.90
21502;DHT22;27639;48.674;9.242;2023-08-24T01:52:57;24.80;54.90
21502;DHT22;27639;48.674;9.242;2023-08-24T01:55:23;24.80;54.90
21502;DHT22;27639;48.674;9.242;2023-08-24T01:57:49;24.70;54.80
21502;DHT22;27639;48.674;9.242;2023-08-24T02:00:15;24.70;54.80
21502;DHT22;27639;48.674;9.242;2023-08-24T02:02:42;24.70;55.20
21502;DHT22;27639;48.674;9.242;2023-08-24T02:05:08;24.60;55.30
21502;DHT22;27639;48.674;9.242;2023-08-24T02:07:33;24.60;55.40
21502;DHT22;27639;48.674;9.242;2023-08-24T02:09:59;24.50;55.30
21502;DHT22;27639;48.674;9.242;2023-08-24T02:12:24;24.50;55.60
21502;DHT22;27639;48.674;9.242;2023-08-24T02:14:50;24.40;55.60
21502;DHT22;27639;48.674;9.242;2023-08-24T02:17:16;24.40;55.70
21502;DHT22;27639;48.674;9.242;2023-08-24T02:19:41;24.40;55.90
21502;DHT22;27639;48.674;9.242;2023-08-24T02:22:07;24.30;56.00
21502;DHT22;27639;48.674;9.242;2023-08-24T02:24:33;24.30;56.10
21502;DHT22;27639;48.674;9.242;2023-08-24T02:27:00;24.30;56.20
21502;DHT22;27639;48.674;9.242;2023-08-24T02:29:25;24.30;56.30
21502;DHT22;27639;48.674;9.242;2023-08-24T02:31:51;24.20;56.30
21502;DHT22;27639;48.674;9.242;2023-08-24T02:34:17;24.20;56.30
21502;DHT22;27639;48.674;9.242;2023-08-24T02:36:43;24.10;56.30
21502;DHT22;27639;48.674;9.242;2023-08-24T02:39:09;24.10;56.50
21502;DHT22;27639;48.674;9.242;2023-08-24T02:41:35;24.10;56.40
21502;DHT22;27639;48.674;9.242;2023-08-24T02:44:01;24.00;56.50
21502;DHT22;27639;48.674;9.242;2023-08-24T02:46:28;24.00;56.50
21502;DHT22;27639;48.674;9.242;2023-08-24T02:48:53;24.00;56.50
21502;DHT22;27639;48.674;9.242;2023-08-24T02:51:21;24.00;56.50
21502;DHT22;27639;48.674;9.242;2023-08-24T02:53:47;24.00;56.50
21502;DHT22;27639;48.674;9.242;2023-08-24T02:56:12;24.00;56.50
21502;DHT22;27639;48.674;9.242;2023-08-24T02:58:38;24.00;56.60
21502;DHT22;27639;48.674;9.242;2023-08-24T03:01:07;23.90;56.60
21502;DHT22;27639;48.674;9.242;2023-08-24T03:03:37;24.00;56.70
21502;DHT22;27639;48.674;9.242;2023-08-24T03:06:04;24.00;56.70
21502;DHT22;27639;48.674;9.242;2023-08-24T03:08:31;24.00;56.70
21502;DHT22;27639;48.674;9.242;2023-08-24T03:10:58;24.00;56.50
21502;DHT22;27639;48.674;9.242;2023-08-24T03:13:24;24.00;56.40
21502;DHT22;27639;48.674;9.242;2023-08-24T03:15:50;24.00;56.30
21502;DHT22;27639;48.674;9.242;2023-08-24T03:18:16;24.00;56.40
21502;DHT22;27639;48.674;9.242;2023-08-24T03:20:45;24.10;56.50
21502;DHT22;27639;48.674;9.242;2023-08-24T03:23:11;24.00;56.50
21502;DHT22;27639;48.674;9.242;2023-08-24T03:25:38;24.00;56.60
21502;DHT22;27639;48.674;9.242;2023-08-24T03:28:05;24.00;56.70
21502;DHT22;27639;48.674;9.242;2023-08-24T03:30:31;24.00;56.70
21502;DHT22;27639;48.674;9.242;2023-08-24T03:32:56;23.90;56.80
21502;DHT22;27639;48.674;9.242;2023-08-24T03:35:24;23.90;56.90
21502;DHT22;27639;48.674;9.242;2023-08-24T03:37:50;23.80;56.80
21502;DHT22;27639;48.674;9.242;2023-08-24T03:40:16;23.90;56.90
21502;DHT22;27639;48.674;9.242;2023-08-24T03:42:42;23.90;56.90
21502;DHT22;27639;48.674;9.242;2023-08-24T03:45:07;24.00;56.80
21502;DHT22;27639;48.674;9.242;2023-08-24T03:47:33;24.00;56.60
21502;DHT22;27639;48.674;9.242;2023-08-24T03:49:59;24.10;56.50
21502;DHT22;27639;48.674;9.242;2023-08-24T03:52:25;24.10;56.40
21502;DHT22;27639;48.674;9.242;2023-08-24T03:54:51;24.10;56.20
21502;DHT22;27639;48.674;9.242;2023-08-24T03:57:16;24.00;56.10
21502;DHT22;27639;48.674;9.242;2023-08-24T03:59:42;24.00;56.20
21502;DHT22;27639;48.674;9.242;2023-08-24T04:02:07;24.00;56.30
21502;DHT22;27639;48.674;9.242;2023-08-24T04:04:33;24.00;56.50
21502;DHT22;27639;48.674;9.242;2023-08-24T04:06:58;23.90;56.70
21502;DHT22;27639;48.674;9.242;2023-08-24T04:09:25;23.90;56.80
21502;DHT22;27639;48.674;9.242;2023-08-24T04:11:51;23.90;57.00
21502;DHT22;27639;48.674;9.242;2023-08-24T04:14:16;23.90;57.00
21502;DHT22;27639;48.674;9.242;2023-08-24T04:16:42;23.80;57.00
21502;DHT22;27639;48.674;9.242;2023-08-24T04:19:08;23.80;57.00
21502;DHT22;27639;48.674;9.242;2023-08-24T04:21:34;23.80;57.10
21502;DHT22;27639;48.674;9.242;2023-08-24T04:23:59;23.80;57.20
21502;DHT22;27639;48.674;9.242;2023-08-24T04:26:25;23.80;57.20
21502;DHT22;27639;48.674;9.242;2023-08-24T04:28:51;23.90;57.30
21502;DHT22;27639;48.674;9.242;2023-08-24T04:31:16;23.90;57.30
21502;DHT22;27639;48.674;9.242;2023-08-24T04:33:42;24.00;57.40
21502;DHT22;27639;48.674;9.242;2023-08-24T04:36:08;24.00;57.40
21502;DHT22;27639;48.674;9.242;2023-08-24T04:38:34;24.00;57.50
21502;DHT22;27639;48.674;9.242;2023-08-24T04:40:59;24.00;57.40
21502;DHT22;27639;48.674;9.242;2023-08-24T04:43:25;24.00;57.30
21502;DHT22;27639;48.674;9.242;2023-08-24T04:45:53;24.10;57.20
21502;DHT22;27639;48.674;9.242;2023-08-24T04:48:23;24.10;57.10
21502;DHT22;27639;48.674;9.242;2023-08-24T04:50:49;24.10;57.10
21502;DHT22;27639;48.674;9.242;2023-08-24T04:53:19;24.10;57.00
21502;DHT22;27639;48.674;9.242;2023-08-24T04:55:45;24.10;57.00
21502;DHT22;27639;48.674;9.242;2023-08-24T04:58:12;24.10;57.00
21502;DHT22;27639;48.674;9.242;2023-08-24T05:00:38;24.20;57.10
21502;DHT22;27639;48.674;9.242;2023-08-24T05:03:05;24.20;57.00
21502;DHT22;27639;48.674;9.242;2023-08-24T05:05:32;24.10;57.00
21502;DHT22;27639;48.674;9.242;2023-08-24T05:07:59;24.10;57.30
21502;DHT22;27639;48.674;9.242;2023-08-24T05:10:25;24.10;57.40
21502;DHT22;27639;48.674;9.242;2023-08-24T05:12:51;24.00;57.50
21502;DHT22;27639;48.674;9.242;2023-08-24T05:15:17;24.00;57.50
21502;DHT22;27639;48.674;9.242;2023-08-24T05:17:42;24.00;57.50
21502;DHT22;27639;48.674;9.242;2023-08-24T05:20:08;23.90;57.50
21502;DHT22;27639;48.674;9.242;2023-08-24T05:22:38;23.90;57.60
21502;DHT22;27639;48.674;9.242;2023-08-24T05:25:04;23.90;57.80
21502;DHT22;27639;48.674;9.242;2023-08-24T05:27:30;23.80;57.80
21502;DHT22;27639;48.674;9.242;2023-08-24T05:29:56;23.80;57.80
21502;DHT22;27639;48.674;9.242;2023-08-24T05:32:21;23.80;57.80
21502;DHT22;27639;48.674;9.242;2023-08-24T05:34:47;23.80;57.80
21502;DHT22;27639;48.674;9.242;2023-08-24T05:37:12;23.80;58.00
21502;DHT22;27639;48.674;9.242;2023-08-24T05:39:38;23.80;58.50
21502;DHT22;27639;48.674;9.242;2023-08-24T05:42:04;23.80;59.00
21502;DHT22;27639;48.674;9.242;2023-08-24T05:44:30;23.80;59.00
21502;DHT22;27639;48.674;9.242;2023-08-24T05:46:56;23.80;58.50
21502;DHT22;27639;48.674;9.242;2023-08-24T05:49:21;23.90;58.30
21502;DHT22;27639;48.674;9.242;2023-08-24T05:51:50;24.00;58.30
21502;DHT22;27639;48.674;9.242;2023-08-24T05:54:16;24.00;58.30
21502;DHT22;27639;48.674;9.242;2023-08-24T05:56:45;24.00;58.20
21502;DHT22;27639;48.674;9.242;2023-08-24T05:59:11;24.10;58.10
21502;DHT22;27639;48.674;9.242;2023-08-24T06:01:36;24.10;58.10
21502;DHT22;27639;48.674;9.242;2023-08-24T06:04:07;24.20;58.10
21502;DHT22;27639;48.674;9.242;2023-08-24T06:06:32;24.20;58.40
21502;DHT22;27639;48.674;9.242;2023-08-24T06:08:58;24.30;58.20
21502;DHT22;27639;48.674;9.242;2023-08-24T06:11:24;24.30;58.20
21502;DHT22;27639;48.674;9.242;2023-08-24T06:13:49;24.40;58.30
21502;DHT22;27639;48.674;9.242;2023-08-24T06:16:17;24.50;58.20
21502;DHT22;27639;48.674;9.242;2023-08-24T06:18:43;24.70;58.10
21502;DHT22;27639;48.674;9.242;2023-08-24T06:21:09;24.80;57.70
21502;DHT22;27639;48.674;9.242;2023-08-24T06:23:34;25.00;57.30
21502;DHT22;27639;48.674;9.242;2023-08-24T06:26:00;25.10;57.00
21502;DHT22;27639;48.674;9.242;2023-08-24T06:28:26;25.20;56.70
21502;DHT22;27639;48.674;9.242;2023-08-24T06:30:52;25.30;56.30
21502;DHT22;27639;48.674;9.242;2023-08-24T06:33:20;25.30;56.20
21502;DHT22;27639;48.674;9.242;2023-08-24T06:35:45;25.30;56.20
21502;DHT22;27639;48.674;9.242;2023-08-24T06:38:11;25.40;56.10
21502;DHT22;27639;48.674;9.242;2023-08-24T06:40:36;25.40;56.10
21502;DHT22;27639;48.674;9.242;2023-08-24T06:43:02;25.50;56.10
21502;DHT22;27639;48.674;9.242;2023-08-24T06:45:28;25.50;55.90
21502;DHT22;27639;48.674;9.242;2023-08-24T06:47:53;25.50;55.90
21502;DHT22;27639;48.674;9.242;2023-08-24T06:50:19;25.50;55.90
21502;DHT22;27639;48.674;9.242;2023-08-24T06:52:45;25.50;55.60
21502;DHT22;27639;48.674;9.242;2023-08-24T06:55:11;25.60;55.70
21502;DHT22;27639;48.674;9.242;2023-08-24T06:57:38;25.60;55.40
21502;DHT22;27639;48.674;9.242;2023-08-24T07:00:03;25.60;55.40
21502;DHT22;27639;48.674;9.242;2023-08-24T07:02:32;25.60;55.40
21502;DHT22;27639;48.674;9.242;2023-08-24T07:04:58;25.60;55.20
21502;DHT22;27639;48.674;9.242;2023-08-24T07:07:24;25.60;55.20
21502;DHT22;27639;48.674;9.242;2023-08-24T07:09:50;25.70;55.20
21502;DHT22;27639;48.674;9.242;2023-08-24T07:12:16;25.70;56.10
21502;DHT22;27639;48.674;9.242;2023-08-24T07:14:42;25.70;55.30
21502;DHT22;27639;48.674;9.242;2023-08-24T07:17:07;25.70;55.30
21502;DHT22;27639;48.674;9.242;2023-08-24T07:19:33;25.70;55.30
21502;DHT22;27639;48.674;9.242;2023-08-24T07:21:59;25.70;55.10
21502;DHT22;27639;48.674;9.242;2023-08-24T07:24:24;25.80;55.50
21502;DHT22;27639;48.674;9.242;2023-08-24T07:26:55;25.80;55.20
21502;DHT22;27639;48.674;9.242;2023-08-24T07:29:21;25.80;54.90
21502;DHT22;27639;48.674;9.242;2023-08-24T07:31:47;25.80;54.90
21502;DHT22;27639;48.674;9.242;2023-08-24T07:34:13;25.90;54.80
21502;DHT22;27639;48.674;9.242;2023-08-24T07:36:39;25.90;54.90
21502;DHT22;27639;48.674;9.242;2023-08-24T07:39:04;26.00;54.40
21502;DHT22;27639;48.674;9.242;2023-08-24T07:41:30;26.10;54.30
21502;DHT22;27639;48.674;9.242;2023-08-24T07:43:55;26.00;54.20
21502;DHT22;27639;48.674;9.242;2023-08-24T07:46:21;25.90;54.10
21502;DHT22;27639;48.674;9.242;2023-08-24T07:48:47;26.00;54.30
21502;DHT22;27639;48.674;9.242;2023-08-24T07:51:12;26.10;54.60
21502;DHT22;27639;48.674;9.242;2023-08-24T07:53:38;26.10;54.30
21502;DHT22;27639;48.674;9.242;2023-08-24T07:56:03;26.10;54.10
21502;DHT22;27639;48.674;9.242;2023-08-24T07:58:29;26.30;54.30
21502;DHT22;27639;48.674;9.242;2023-08-24T08:00:57;26.40;54.10
21502;DHT22;27639;48.674;9.242;2023-08-24T08:03:22;26.60;54.10
21502;DHT22;27639;48.674;9.242;2023-08-24T08:05:48;26.80;54.20
21502;DHT22;27639;48.674;9.242;2023-08-24T08:08:14;26.90;53.70
21502;DHT22;27639;48.674;9.242;2023-08-24T08:10:40;27.00;53.50
21502;DHT22;27639;48.674;9.242;2023-08-24T08:13:06;27.10;53.30
21502;DHT22;27639;48.674;9.242;2023-08-24T08:15:32;27.20;53.20
21502;DHT22;27639;48.674;9.242;2023-08-24T08:17:58;27.30;53.20
21502;DHT22;27639;48.674;9.242;2023-08-24T08:20:23;27.50;53.00
21502;DHT22;27639;48.674;9.242;2023-08-24T08:22:49;27.80;53.00
21502;DHT22;27639;48.674;9.242;2023-08-24T08:25:15;27.90;52.40
21502;DHT22;27639;48.674;9.242;2023-08-24T08:27:43;28.00;52.20
21502;DHT22;27639;48.674;9.242;2023-08-24T08:30:09;28.20;52.10
21502;DHT22;27639;48.674;9.242;2023-08-24T08:32:35;28.40;52.10
21502;DHT22;27639;48.674;9.242;2023-08-24T08:35:01;28.60;51.90
21502;DHT22;27639;48.674;9.242;2023-08-24T08:37:27;28.70;51.50
21502;DHT22;27639;48.674;9.242;2023-08-24T08:39:53;28.90;51.20
21502;DHT22;27639;48.674;9.242;2023-08-24T08:42:18;29.10;50.60
21502;DHT22;27639;48.674;9.242;2023-08-24T08:44:45;29.20;50.00
21502;DHT22;27639;48.674;9.242;2023-08-24T08:47:12;29.20;49.70
21502;DHT22;27639;48.674;9.242;2023-08-24T08:49:48;29.30;49.50
21502;DHT22;27639;48.674;9.242;2023-08-24T08:52:14;29.40;49.50
21502;DHT22;27639;48.674;9.242;2023-08-24T08:54:40;29.60;49.30
21502;DHT22;27639;48.674;9.242;2023-08-24T08:57:08;29.60;48.90
21502;DHT22;27639;48.674;9.242;2023-08-24T08:59:35;29.70;49.10
21502;DHT22;27639;48.674;9.242;2023-08-24T09:02:02;29.80;48.70
21502;DHT22;27639;48.674;9.242;2023-08-24T09:04:33;29.90;48.50
21502;DHT22;27639;48.674;9.242;2023-08-24T09:06:59;30.00;48.30
21502;DHT22;27639;48.674;9.242;2023-08-24T09:09:29;30.20;48.50
21502;DHT22;27639;48.674;9.242;2023-08-24T09:11:55;30.30;48.10
21502;DHT22;27639;48.674;9.242;2023-08-24T09:14:20;30.40;47.40
21502;DHT22;27639;48.674;9.242;2023-08-24T09:16:46;30.40;47.80
21502;DHT22;27639;48.674;9.242;2023-08-24T09:19:12;30.50;47.70
21502;DHT22;27639;48.674;9.242;2023-08-24T09:21:39;30.50;48.00
21502;DHT22;27639;48.674;9.242;2023-08-24T09:24:06;30.70;47.50
21502;DHT22;27639;48.674;9.242;2023-08-24T09:26:37;30.90;47.40
21502;DHT22;27639;48.674;9.242;2023-08-24T09:29:12;31.00;47.10
21502;DHT22;27639;48.674;9.242;2023-08-24T09:31:39;31.10;46.80
21502;DHT22;27639;48.674;9.242;2023-08-24T09:34:05;31.10;47.10
21502;DHT22;27639;48.674;9.242;2023-08-24T09:36:32;31.10;46.50
21502;DHT22;27639;48.674;9.242;2023-08-24T09:39:02;31.10;46.50
21502;DHT22;27639;48.674;9.242;2023-08-24T09:41:44;31.20;46.70
21502;DHT22;27639;48.674;9.242;2023-08-24T09:44:10;31.20;46.50
21502;DHT22;27639;48.674;9.242;2023-08-24T09:46:37;31.30;46.60
21502;DHT22;27639;48.674;9.242;2023-08-24T09:49:08;31.30;46.10
21502;DHT22;27639;48.674;9.242;2023-08-24T09:51:34;31.40;46.10
21502;DHT22;27639;48.674;9.242;2023-08-24T09:54:06;31.60;45.80
21502;DHT22;27639;48.674;9.242;2023-08-24T09:56:38;31.70;45.90
21502;DHT22;27639;48.674;9.242;2023-08-24T09:59:17;31.80;45.40
21502;DHT22;27639;48.674;9.242;2023-08-24T10:01:50;31.90;45.30
21502;DHT22;27639;48.674;9.242;2023-08-24T10:04:28;32.00;44.90
21502;DHT22;27639;48.674;9.242;2023-08-24T10:07:15;32.00;44.60
21502;DHT22;27639;48.674;9.242;2023-08-24T10:09:50;32.00;44.80
21502;DHT22;27639;48.674;9.242;2023-08-24T10:12:20;32.00;44.90
21502;DHT22;27639;48.674;9.242;2023-08-24T10:14:59;32.00;44.70
21502;DHT22;27639;48.674;9.242;2023-08-24T10:17:30;32.10;44.70
21502;DHT22;27639;48.674;9.242;2023-08-24T10:19:58;32.10;45.00
21502;DHT22;27639;48.674;9.242;2023-08-24T10:22:27;32.20;45.30
21502;DHT22;27639;48.674;9.242;2023-08-24T10:24:54;32.20;45.20
21502;DHT22;27639;48.674;9.242;2023-08-24T10:27:24;32.40;45.30
21502;DHT22;27639;48.674;9.242;2023-08-24T10:29:51;32.50;45.30
21502;DHT22;27639;48.674;9.242;2023-08-24T10:32:17;32.60;44.80
21502;DHT22;27639;48.674;9.242;2023-08-24T10:34:44;32.70;45.10
21502;DHT22;27639;48.674;9.242;2023-08-24T10:37:11;32.70;45.10
21502;DHT22;27639;48.674;9.242;2023-08-24T10:39:43;32.80;44.80
21502;DHT22;27639;48.674;9.242;2023-08-24T10:42:10;32.80;44.50
21502;DHT22;27639;48.674;9.242;2023-08-24T10:44:38;32.90;44.50
21502;DHT22;27639;48.674;9.242;2023-08-24T10:49:38;33.10;45.00
21502;DHT22;27639;48.674;9.242;2023-08-24T10:52:20;33.20;45.30
21502;DHT22;27639;48.674;9.242;2023-08-24T10:54:53;33.30;44.80
21502;DHT22;27639;48.674;9.242;2023-08-24T10:57:23;33.30;44.90
21502;DHT22;27639;48.674;9.242;2023-08-24T11:02:47;33.40;45.20
21502;DHT22;27639;48.674;9.242;2023-08-24T11:07:58;33.50;45.00
21502;DHT22;27639;48.674;9.242;2023-08-24T11:10:25;33.50;45.30
21502;DHT22;27639;48.674;9.242;2023-08-24T11:15:46;33.70;44.80
21502;DHT22;27639;48.674;9.242;2023-08-24T11:18:26;33.80;45.10
21502;DHT22;27639;48.674;9.242;2023-08-24T11:21:06;33.90;45.10
21502;DHT22;27639;48.674;9.242;2023-08-24T11:23:34;34.10;44.80
21502;DHT22;27639;48.674;9.242;2023-08-24T11:26:00;34.20;44.60
21502;DHT22;27639;48.674;9.242;2023-08-24T11:28:28;34.20;44.50
21502;DHT22;27639;48.674;9.242;2023-08-24T11:30:55;34.30;44.20
21502;DHT22;27639;48.674;9.242;2023-08-24T11:33:34;34.40;44.20
21502;DHT22;27639;48.674;9.242;2023-08-24T11:36:03;34.50;44.20
21502;DHT22;27639;48.674;9.242;2023-08-24T11:38:39;34.50;44.50
21502;DHT22;27639;48.674;9.242;2023-08-24T11:41:16;34.60;44.30
21502;DHT22;27639;48.674;9.242;2023-08-24T11:43:46;34.70;44.40
21502;DHT22;27639;48.674;9.242;2023-08-24T11:46:13;34.80;44.10
21502;DHT22;27639;48.674;9.242;2023-08-24T11:48:41;34.80;44.00
21502;DHT22;27639;48.674;9.242;2023-08-24T11:51:13;34.80;43.70
21502;DHT22;27639;48.674;9.242;2023-08-24T11:53:40;34.90;43.60
21502;DHT22;27639;48.674;9.242;2023-08-24T11:56:11;34.80;43.70
21502;DHT22;27639;48.674;9.242;2023-08-24T11:58:41;34.90;43.70
21502;DHT22;27639;48.674;9.242;2023-08-24T12:01:11;34.90;43.70
21502;DHT22;27639;48.674;9.242;2023-08-24T12:03:38;34.90;43.70
21502;DHT22;27639;48.674;9.242;2023-08-24T12:06:12;35.00;43.50
21502;DHT22;27639;48.674;9.242;2023-08-24T12:08:40;35.10;43.30
21502;DHT22;27639;48.674;9.242;2023-08-24T12:11:11;35.10;43.50
21502;DHT22;27639;48.674;9.242;2023-08-24T12:13:37;35.30;43.20
21502;DHT22;27639;48.674;9.242;2023-08-24T12:16:04;35.30;42.80
21502;DHT22;27639;48.674;9.242;2023-08-24T12:18:30;35.30;43.20
21502;DHT22;27639;48.674;9.242;2023-08-24T12:20:57;35.20;42.60
21502;DHT22;27639;48.674;9.242;2023-08-24T12:23:27;35.30;42.70
21502;DHT22;27639;48.674;9.242;2023-08-24T12:25:54;35.40;42.90
21502;DHT22;27639;48.674;9.242;2023-08-24T12:28:20;35.60;42.80
21502;DHT22;27639;48.674;9.242;2023-08-24T12:30:52;35.70;42.30
21502;DHT22;27639;48.674;9.242;2023-08-24T12:35:47;35.80;42.00
21502;DHT22;27639;48.674;9.242;2023-08-24T12:38:12;35.80;42.00
21502;DHT22;27639;48.674;9.242;2023-08-24T12:40:38;35.80;41.70
21502;DHT22;27639;48.674;9.242;2023-08-24T12:43:04;35.90;41.50
21502;DHT22;27639;48.674;9.242;2023-08-24T12:45:29;35.90;41.40
21502;DHT22;27639;48.674;9.242;2023-08-24T12:47:55;35.90;41.20
21502;DHT22;27639;48.674;9.242;2023-08-24T12:50:20;36.00;41.10
21502;DHT22;27639;48.674;9.242;2023-08-24T12:52:46;36.10;40.80
21502;DHT22;27639;48.674;9.242;2023-08-24T12:55:11;36.10;41.00
21502;DHT22;27639;48.674;9.242;2023-08-24T12:57:37;36.30;40.90
21502;DHT22;27639;48.674;9.242;2023-08-24T13:00:03;36.40;40.70
21502;DHT22;27639;48.674;9.242;2023-08-24T13:02:28;36.40;40.60
21502;DHT22;27639;48.674;9.242;2023-08-24T13:04:54;36.40;40.50
21502;DHT22;27639;48.674;9.242;2023-08-24T13:07:20;36.40;40.40
21502;DHT22;27639;48.674;9.242;2023-08-24T13:09:46;36.50;40.00
21502;DHT22;27639;48.674;9.242;2023-08-24T13:12:11;36.40;40.00
21502;DHT22;27639;48.674;9.242;2023-08-24T13:14:37;36.40;40.00
21502;DHT22;27639;48.674;9.242;2023-08-24T13:17:03;36.40;40.70
21502;DHT22;27639;48.674;9.242;2023-08-24T13:19:29;36.50;40.20
21502;DHT22;27639;48.674;9.242;2023-08-24T13:21:54;36.60;39.70
21502;DHT22;27639;48.674;9.242;2023-08-24T13:24:20;36.70;40.60
21502;DHT22;27639;48.674;9.242;2023-08-24T13:26:45;36.80;39.60
21502;DHT22;27639;48.674;9.242;2023-08-24T13:29:11;36.80;39.10
21502;DHT22;27639;48.674;9.242;2023-08-24T13:31:36;36.90;39.00
21502;DHT22;27639;48.674;9.242;2023-08-24T13:34:02;36.90;39.10
21502;DHT22;27639;48.674;9.242;2023-08-24T13:36:30;36.90;38.60
21502;DHT22;27639;48.674;9.242;2023-08-24T13:38:55;36.70;37.90
21502;DHT22;27639;48.674;9.242;2023-08-24T13:41:21;36.80;38.20
21502;DHT22;27639;48.674;9.242;2023-08-24T13:43:46;36.90;38.30
21502;DHT22;27639;48.674;9.242;2023-08-24T13:46:12;36.80;38.40
21502;DHT22;27639;48.674;9.242;2023-08-24T13:48:37;36.80;38.10
21502;DHT22;27639;48.674;9.242;2023-08-24T13:51:03;36.90;37.60
21502;DHT22;27639;48.674;9.242;2023-08-24T13:53:29;36.90;37.40
21502;DHT22;27639;48.674;9.242;2023-08-24T13:55:54;37.00;37.60
21502;DHT22;27639;48.674;9.242;2023-08-24T13:58:20;37.00;37.70
21502;DHT22;27639;48.674;9.242;2023-08-24T14:00:45;37.00;37.50
21502;DHT22;27639;48.674;9.242;2023-08-24T14:03:11;37.10;37.50
21502;DHT22;27639;48.674;9.242;2023-08-24T14:05:40;37.10;37.00
21502;DHT22;27639;48.674;9.242;2023-08-24T14:08:05;37.10;37.00
21502;DHT22;27639;48.674;9.242;2023-08-24T14:10:32;37.10;37.50
21502;DHT22;27639;48.674;9.242;2023-08-24T14:12:58;37.20;37.50
21502;DHT22;27639;48.674;9.242;2023-08-24T14:15:24;37.20;36.50
21502;DHT22;27639;48.674;9.242;2023-08-24T14:17:49;37.30;37.10
21502;DHT22;27639;48.674;9.242;2023-08-24T14:20:15;37.30;36.00
21502;DHT22;27639;48.674;9.242;2023-08-24T14:22:41;37.20;35.60
21502;DHT22;27639;48.674;9.242;2023-08-24T14:25:07;37.30;36.00
21502;DHT22;27639;48.674;9.242;2023-08-24T14:27:32;37.30;35.70
21502;DHT22;27639;48.674;9.242;2023-08-24T14:29:58;37.20;35.70
21502;DHT22;27639;48.674;9.242;2023-08-24T14:32:23;37.30;35.70
21502;DHT22;27639;48.674;9.242;2023-08-24T14:34:49;37.30;35.70
21502;DHT22;27639;48.674;9.242;2023-08-24T14:37:14;37.30;35.90
21502;DHT22;27639;48.674;9.242;2023-08-24T14:39:40;37.20;35.90
21502;DHT22;27639;48.674;9.242;2023-08-24T14:42:05;37.20;35.90
21502;DHT22;27639;48.674;9.242;2023-08-24T14:44:31;37.20;36.00
21502;DHT22;27639;48.674;9.242;2023-08-24T14:46:57;37.10;36.20
21502;DHT22;27639;48.674;9.242;2023-08-24T14:49:22;37.10;36.30
21502;DHT22;27639;48.674;9.242;2023-08-24T14:51:48;37.10;36.40
21502;DHT22;27639;48.674;9.242;2023-08-24T14:54:14;37.00;36.60
21502;DHT22;27639;48.674;9.242;2023-08-24T14:56:40;37.00;36.80
21502;DHT22;27639;48.674;9.242;2023-08-24T14:59:06;37.10;37.00
21502;DHT22;27639;48.674;9.242;2023-08-24T15:01:31;36.90;36.90
21502;DHT22;27639;48.674;9.242;2023-08-24T15:03:57;36.90;37.10
21502;DHT22;27639;48.674;9.242;2023-08-24T15:06:22;36.90;37.40
21502;DHT22;27639;48.674;9.242;2023-08-24T15:08:48;36.80;36.90
21502;DHT22;27639;48.674;9.242;2023-08-24T15:11:14;36.80;36.80
21502;DHT22;27639;48.674;9.242;2023-08-24T15:13:41;36.70;36.70
21502;DHT22;27639;48.674;9.242;2023-08-24T15:16:06;36.60;36.80
21502;DHT22;27639;48.674;9.242;2023-08-24T15:18:32;36.50;37.80
21502;DHT22;27639;48.674;9.242;2023-08-24T15:20:58;36.30;39.10
21502;DHT22;27639;48.674;9.242;2023-08-24T15:23:28;36.00;40.10
21502;DHT22;27639;48.674;9.242;2023-08-24T15:25:55;35.70;40.90
21502;DHT22;27639;48.674;9.242;2023-08-24T15:28:22;35.40;41.70
21502;DHT22;27639;48.674;9.242;2023-08-24T15:30:47;35.00;42.20
21502;DHT22;27639;48.674;9.242;2023-08-24T15:33:14;34.70;42.50
21502;DHT22;27639;48.674;9.242;2023-08-24T15:35:40;34.50;42.80
21502;DHT22;27639;48.674;9.242;2023-08-24T15:38:06;34.20;43.30
21502;DHT22;27639;48.674;9.242;2023-08-24T15:40:33;34.00;43.60
21502;DHT22;27639;48.674;9.242;2023-08-24T15:42:58;33.80;43.70
21502;DHT22;27639;48.674;9.242;2023-08-24T15:45:24;33.60;44.00